sensor_id;sensor_type;location;lat;lon;timestamp;temperature;humidity
7936;DHT22;4013;49.744;8.118;2023-07-28T00:02:07;17.80;99.90
7936;DHT22;4013;49.744;8.118;2023-07-28T00:04:34;17.80;99.90
7936;DHT22;4013;49.744;8.118;2023-07-28T00:07:02;17.80;99.90
7936;DHT22;4013;49.744;8.118;2023-07-28T00:09:29;17.70;99.90
7936;DHT22;4013;49.744;8.118;2023-07-28T00:11:56;17.70;99.90
7936;DHT22;4013;49.744;8.118;2023-07-28T00:14:24;17.70;99.90
7936;DHT22;4013;49.744;8.118;2023-07-28T00:16:51;17.70;99.90
7936;DHT22;4013;49.744;8.118;2023-07-28T00:19:18;17.70;99.90
7936;DHT22;4013;49.744;8.118;2023-07-28T00:21:46;17.60;99.90
7936;DHT22;4013;49.744;8.118;2023-07-28T00:24:13;17.60;99.90
7936;DHT22;4013;49.744;8.118;2023-07-28T00:26:41;17.50;99.90
7936;DHT22;4013;49.744;8.118;2023-07-28T00:29:07;17.50;99.90
7936;DHT22;4013;49.744;8.118;2023-07-28T00:31:36;17.50;99.90
7936;DHT22;4013;49.744;8.118;2023-07-28T00:34:03;17.50;99.90
7936;DHT22;4013;49.744;8.118;2023-07-28T00:36:30;17.50;99.90
7936;DHT22;4013;49.744;8.118;2023-07-28T00:38:57;17.50;99.90
7936;DHT22;4013;49.744;8.118;2023-07-28T00:41:24;17.50;99.90
7936;DHT22;4013;49.744;8.118;2023-07-28T00:43:51;17.40;99.90
7936;DHT22;4013;49.744;8.118;2023-07-28T00:46:19;17.40;99.90
7936;DHT22;4013;49.744;8.118;2023-07-28T00:48:47;17.40;99.90
7936;DHT22;4013;49.744;8.118;2023-07-28T00:51:14;17.50;99.90
7936;DHT22;4013;49.744;8.118;2023-07-28T00:53:42;17.50;99.90
7936;DHT22;4013;49.744;8.118;2023-07-28T00:56:10;17.50;99.90
7936;DHT22;4013;49.744;8.118;2023-07-28T00:58:37;17.50;99.90
7936;DHT22;4013;49.744;8.118;2023-07-28T01:01:04;17.40;99.90
7936;DHT22;4013;49.744;8.118;2023-07-28T01:03:32;17.50;99.90
7936;DHT22;4013;49.744;8.118;2023-07-28T01:06:10;17.40;99.90
7936;DHT22;4013;49.744;8.118;2023-07-28T01:08:42;17.50;99.90
7936;DHT22;4013;49.744;8.118;2023-07-28T01:11:13;17.40;99.90
7936;DHT22;4013;49.744;8.118;2023-07-28T01:13:40;17.40;99.90
7936;DHT22;4013;49.744;8.118;2023-07-28T01:16:08;17.40;99.90
7936;DHT22;4013;49.744;8.118;2023-07-28T01:18:35;17.50;99.90
7936;DHT22;4013;49.744;8.118;2023-07-28T01:21:06;17.40;99.90
7936;DHT22;4013;49.744;8.118;2023-07-28T01:23:40;17.40;99.90
7936;DHT22;4013;49.744;8.118;2023-07-28T01:26:10;17.40;99.90
7936;DHT22;4013;49.744;8.118;2023-07-28T01:28:39;17.40;99.90
7936;DHT22;4013;49.744;8.118;2023-07-28T01:31:08;17.40;99.90
7936;DHT22;4013;49.744;8.118;2023-07-28T01:33:35;17.40;99.90
7936;DHT22;4013;49.744;8.118;2023-07-28T01:36:03;17.40;99.90
7936;DHT22;4013;49.744;8.118;2023-07-28T01:38:30;17.30;99.90
7936;DHT22;4013;49.744;8.118;2023-07-28T01:40:57;17.40;99.90
7936;DHT22;4013;49.744;8.118;2023-07-28T01:43:24;17.30;99.90
7936;DHT22;4013;49.744;8.118;2023-07-28T01:45:52;17.30;99.90
7936;DHT22;4013;49.744;8.118;2023-07-28T01:48:19;17.30;99.90
7936;DHT22;4013;49.744;8.118;2023-07-28T01:50:46;17.30;99.90
7936;DHT22;4013;49.744;8.118;2023-07-28T01:53:13;17.30;99.90
7936;DHT22;4013;49.744;8.118;2023-07-28T01:55:40;17.40;99.90
7936;DHT22;4013;49.744;8.118;2023-07-28T01:58:07;17.30;99.90
7936;DHT22;4013;49.744;8.118;2023-07-28T02:00:35;17.40;99.90
7936;DHT22;4013;49.744;8.118;2023-07-28T02:03:03;17.40;99.90
7936;DHT22;4013;49.744;8.118;2023-07-28T02:05:31;17.40;99.90
7936;DHT22;4013;49.744;8.118;2023-07-28T02:07:58;17.40;99.90
7936;DHT22;4013;49.744;8.118;2023-07-28T02:10:26;17.40;99.90
7936;DHT22;4013;49.744;8.118;2023-07-28T02:12:53;17.40;99.90
7936;DHT22;4013;49.744;8.118;2023-07-28T02:15:20;17.40;99.90
7936;DHT22;4013;49.744;8.118;2023-07-28T02:17:47;17.40;99.90
7936;DHT22;4013;49.744;8.118;2023-07-28T02:20:16;17.40;99.90
7936;DHT22;4013;49.744;8.118;2023-07-28T02:22:43;17.30;99.90
7936;DHT22;4013;49.744;8.118;2023-07-28T02:25:11;17.40;99.90
7936;DHT22;4013;49.744;8.118;2023-07-28T02:27:38;17.40;99.90
7936;DHT22;4013;49.744;8.118;2023-07-28T02:30:06;17.40;99.90
7936;DHT22;4013;49.744;8.118;2023-07-28T02:32:33;17.40;99.90
7936;DHT22;4013;49.744;8.118;2023-07-28T02:35:00;17.40;99.90
7936;DHT22;4013;49.744;8.118;2023-07-28T02:37:29;17.40;99.90
7936;DHT22;4013;49.744;8.118;2023-07-28T02:39:56;17.40;99.90
7936;DHT22;4013;49.744;8.118;2023-07-28T02:42:23;17.40;99.90
7936;DHT22;4013;49.744;8.118;2023-07-28T02:44:50;17.40;99.90
7936;DHT22;4013;49.744;8.118;2023-07-28T02:47:18;17.40;99.90
7936;DHT22;4013;49.744;8.118;2023-07-28T02:49:45;17.40;99.90
7936;DHT22;4013;49.744;8.118;2023-07-28T02:52:12;17.40;99.90
7936;DHT22;4013;49.744;8.118;2023-07-28T02:54:40;17.40;99.90
7936;DHT22;4013;49.744;8.118;2023-07-28T02:57:07;17.30;99.90
7936;DHT22;4013;49.744;8.118;2023-07-28T02:59:34;17.40;99.90
7936;DHT22;4013;49.744;8.118;2023-07-28T03:02:01;17.40;99.90
7936;DHT22;4013;49.744;8.118;2023-07-28T03:04:28;17.40;99.90
7936;DHT22;4013;49.744;8.118;2023-07-28T03:06:55;17.40;99.90
7936;DHT22;4013;49.744;8.118;2023-07-28T03:09:22;17.30;99.90
7936;DHT22;4013;49.744;8.118;2023-07-28T03:11:51;17.40;99.90
7936;DHT22;4013;49.744;8.118;2023-07-28T03:14:18;17.40;99.90
7936;DHT22;4013;49.744;8.118;2023-07-28T03:16:44;17.40;99.90
7936;DHT22;4013;49.744;8.118;2023-07-28T03:19:11;17.40;99.90
7936;DHT22;4013;49.744;8.118;2023-07-28T03:21:38;17.40;99.90
7936;DHT22;4013;49.744;8.118;2023-07-28T03:24:05;17.30;99.90
7936;DHT22;4013;49.744;8.118;2023-07-28T03:26:32;17.40;99.90
7936;DHT22;4013;49.744;8.118;2023-07-28T03:29:00;17.30;99.90
7936;DHT22;4013;49.744;8.118;2023-07-28T03:31:27;17.40;99.90
7936;DHT22;4013;49.744;8.118;2023-07-28T03:33:54;17.30;99.90
7936;DHT22;4013;49.744;8.118;2023-07-28T03:36:21;17.40;99.90
7936;DHT22;4013;49.744;8.118;2023-07-28T03:38:48;17.40;99.90
7936;DHT22;4013;49.744;8.118;2023-07-28T03:41:15;17.40;99.90
7936;DHT22;4013;49.744;8.118;2023-07-28T03:43:42;17.40;99.90
7936;DHT22;4013;49.744;8.118;2023-07-28T03:46:11;17.40;99.90
7936;DHT22;4013;49.744;8.118;2023-07-28T03:48:38;17.40;99.90
7936;DHT22;4013;49.744;8.118;2023-07-28T03:51:04;17.30;99.90
7936;DHT22;4013;49.744;8.118;2023-07-28T03:53:31;17.30;99.90
7936;DHT22;4013;49.744;8.118;2023-07-28T03:56:01;17.30;99.90
7936;DHT22;4013;49.744;8.118;2023-07-28T03:58:27;17.30;99.90
7936;DHT22;4013;49.744;8.118;2023-07-28T04:00:55;17.30;99.90
7936;DHT22;4013;49.744;8.118;2023-07-28T04:03:23;17.30;99.90
7936;DHT22;4013;49.744;8.118;2023-07-28T04:05:50;17.30;99.90
7936;DHT22;4013;49.744;8.118;2023-07-28T04:08:17;17.40;99.90
7936;DHT22;4013;49.744;8.118;2023-07-28T04:10:44;17.30;99.90
7936;DHT22;4013;49.744;8.118;2023-07-28T04:13:11;17.40;99.90
7936;DHT22;4013;49.744;8.118;2023-07-28T04:15:38;17.40;99.90
7936;DHT22;4013;49.744;8.118;2023-07-28T04:18:05;17.40;99.90
7936;DHT22;4013;49.744;8.118;2023-07-28T04:20:33;17.40;99.90
7936;DHT22;4013;49.744;8.118;2023-07-28T04:23:00;17.50;99.90
7936;DHT22;4013;49.744;8.118;2023-07-28T04:25:27;17.50;99.90
7936;DHT22;4013;49.744;8.118;2023-07-28T04:27:54;17.50;99.90
7936;DHT22;4013;49.744;8.118;2023-07-28T04:30:22;17.50;99.90
7936;DHT22;4013;49.744;8.118;2023-07-28T04:32:49;17.60;99.90
7936;DHT22;4013;49.744;8.118;2023-07-28T04:35:16;17.60;99.90
7936;DHT22;4013;49.744;8.118;2023-07-28T04:37:44;17.60;99.90
7936;DHT22;4013;49.744;8.118;2023-07-28T04:40:12;17.60;99.90
7936;DHT22;4013;49.744;8.118;2023-07-28T04:42:39;17.60;99.90
7936;DHT22;4013;49.744;8.118;2023-07-28T04:45:07;17.60;99.90
7936;DHT22;4013;49.744;8.118;2023-07-28T04:47:34;17.60;99.90
7936;DHT22;4013;49.744;8.118;2023-07-28T04:50:01;17.70;99.90
7936;DHT22;4013;49.744;8.118;2023-07-28T04:52:28;17.70;99.90
7936;DHT22;4013;49.744;8.118;2023-07-28T04:54:56;17.60;99.90
7936;DHT22;4013;49.744;8.118;2023-07-28T04:57:23;17.70;99.90
7936;DHT22;4013;49.744;8.118;2023-07-28T04:59:50;17.70;99.90
7936;DHT22;4013;49.744;8.118;2023-07-28T05:02:17;17.70;99.90
7936;DHT22;4013;49.744;8.118;2023-07-28T05:04:44;17.70;99.90
7936;DHT22;4013;49.744;8.118;2023-07-28T05:07:12;17.80;99.90
7936;DHT22;4013;49.744;8.118;2023-07-28T05:09:38;17.80;99.90
7936;DHT22;4013;49.744;8.118;2023-07-28T05:12:07;17.80;99.90
7936;DHT22;4013;49.744;8.118;2023-07-28T05:14:35;17.80;99.90
7936;DHT22;4013;49.744;8.118;2023-07-28T05:17:02;17.80;99.90
7936;DHT22;4013;49.744;8.118;2023-07-28T05:19:29;17.80;99.90
7936;DHT22;4013;49.744;8.118;2023-07-28T05:21:56;17.80;99.90
7936;DHT22;4013;49.744;8.118;2023-07-28T05:24:23;17.90;99.90
7936;DHT22;4013;49.744;8.118;2023-07-28T05:26:50;17.90;99.90
7936;DHT22;4013;49.744;8.118;2023-07-28T05:29:18;17.90;99.90
7936;DHT22;4013;49.744;8.118;2023-07-28T05:31:45;17.90;99.90
7936;DHT22;4013;49.744;8.118;2023-07-28T05:34:12;17.90;99.90
7936;DHT22;4013;49.744;8.118;2023-07-28T05:36:40;17.80;99.90
7936;DHT22;4013;49.744;8.118;2023-07-28T05:39:07;17.80;99.90
7936;DHT22;4013;49.744;8.118;2023-07-28T05:41:34;17.80;99.90
7936;DHT22;4013;49.744;8.118;2023-07-28T05:44:01;17.80;99.90
7936;DHT22;4013;49.744;8.118;2023-07-28T05:46:29;17.90;99.90
7936;DHT22;4013;49.744;8.118;2023-07-28T05:48:57;18.00;99.90
7936;DHT22;4013;49.744;8.118;2023-07-28T05:51:24;18.00;99.90
7936;DHT22;4013;49.744;8.118;2023-07-28T05:53:51;18.10;99.90
7936;DHT22;4013;49.744;8.118;2023-07-28T05:56:18;18.10;99.90
7936;DHT22;4013;49.744;8.118;2023-07-28T05:58:46;18.20;99.90
7936;DHT22;4013;49.744;8.118;2023-07-28T06:01:13;18.20;99.90
7936;DHT22;4013;49.744;8.118;2023-07-28T06:03:41;18.20;99.90
7936;DHT22;4013;49.744;8.118;2023-07-28T06:06:08;18.30;99.90
7936;DHT22;4013;49.744;8.118;2023-07-28T06:08:35;18.40;99.90
7936;DHT22;4013;49.744;8.118;2023-07-28T06:11:03;18.40;99.90
7936;DHT22;4013;49.744;8.118;2023-07-28T06:13:31;18.50;99.90
7936;DHT22;4013;49.744;8.118;2023-07-28T06:15:58;18.60;99.90
7936;DHT22;4013;49.744;8.118;2023-07-28T06:18:25;18.70;99.90
7936;DHT22;4013;49.744;8.118;2023-07-28T06:20:54;18.80;99.90
7936;DHT22;4013;49.744;8.118;2023-07-28T06:23:21;18.80;99.90
7936;DHT22;4013;49.744;8.118;2023-07-28T06:25:48;18.80;99.90
7936;DHT22;4013;49.744;8.118;2023-07-28T06:28:15;18.80;99.90
7936;DHT22;4013;49.744;8.118;2023-07-28T06:30:42;18.80;99.90
7936;DHT22;4013;49.744;8.118;2023-07-28T06:33:09;18.80;99.90
7936;DHT22;4013;49.744;8.118;2023-07-28T06:35:36;18.80;99.90
7936;DHT22;4013;49.744;8.118;2023-07-28T06:38:05;18.80;99.90
7936;DHT22;4013;49.744;8.118;2023-07-28T06:40:32;18.90;99.90
7936;DHT22;4013;49.744;8.118;2023-07-28T06:43:00;18.90;99.90
7936;DHT22;4013;49.744;8.118;2023-07-28T06:45:27;19.00;99.90
7936;DHT22;4013;49.744;8.118;2023-07-28T06:47:54;19.10;99.90
7936;DHT22;4013;49.744;8.118;2023-07-28T06:50:21;19.30;99.90
7936;DHT22;4013;49.744;8.118;2023-07-28T06:52:49;19.40;99.90
7936;DHT22;4013;49.744;8.118;2023-07-28T06:55:17;19.60;99.90
7936;DHT22;4013;49.744;8.118;2023-07-28T06:57:44;19.50;99.90
7936;DHT22;4013;49.744;8.118;2023-07-28T07:00:12;19.40;99.90
7936;DHT22;4013;49.744;8.118;2023-07-28T07:02:40;19.40;99.90
7936;DHT22;4013;49.744;8.118;2023-07-28T07:05:07;19.50;99.90
7936;DHT22;4013;49.744;8.118;2023-07-28T07:07:34;19.60;99.90
7936;DHT22;4013;49.744;8.118;2023-07-28T07:10:02;19.70;99.90
7936;DHT22;4013;49.744;8.118;2023-07-28T07:12:30;19.80;99.90
7936;DHT22;4013;49.744;8.118;2023-07-28T07:14:57;19.90;99.90
7936;DHT22;4013;49.744;8.118;2023-07-28T07:17:24;20.00;99.90
7936;DHT22;4013;49.744;8.118;2023-07-28T07:19:51;20.00;99.90
7936;DHT22;4013;49.744;8.118;2023-07-28T07:22:18;20.10;99.90
7936;DHT22;4013;49.744;8.118;2023-07-28T07:24:46;20.30;99.90
7936;DHT22;4013;49.744;8.118;2023-07-28T07:27:13;20.30;99.90
7936;DHT22;4013;49.744;8.118;2023-07-28T07:29:41;20.40;99.90
7936;DHT22;4013;49.744;8.118;2023-07-28T07:32:08;20.30;99.90
7936;DHT22;4013;49.744;8.118;2023-07-28T07:34:39;20.30;99.90
7936;DHT22;4013;49.744;8.118;2023-07-28T07:37:06;20.40;99.90
7936;DHT22;4013;49.744;8.118;2023-07-28T07:39:33;20.40;99.90
7936;DHT22;4013;49.744;8.118;2023-07-28T07:42:01;20.40;99.90
7936;DHT22;4013;49.744;8.118;2023-07-28T07:44:28;20.40;99.90
7936;DHT22;4013;49.744;8.118;2023-07-28T07:47:00;20.40;99.90
7936;DHT22;4013;49.744;8.118;2023-07-28T07:49:27;20.40;99.90
7936;DHT22;4013;49.744;8.118;2023-07-28T07:51:54;20.50;99.90
7936;DHT22;4013;49.744;8.118;2023-07-28T07:54:21;20.50;99.90
7936;DHT22;4013;49.744;8.118;2023-07-28T07:56:48;20.50;99.90
7936;DHT22;4013;49.744;8.118;2023-07-28T07:59:15;20.40;99.90
7936;DHT22;4013;49.744;8.118;2023-07-28T08:01:42;20.40;99.90
7936;DHT22;4013;49.744;8.118;2023-07-28T08:04:11;20.30;99.90
7936;DHT22;4013;49.744;8.118;2023-07-28T08:06:38;20.20;99.90
7936;DHT22;4013;49.744;8.118;2023-07-28T08:09:05;20.10;99.90
7936;DHT22;4013;49.744;8.118;2023-07-28T08:11:32;20.00;99.90
7936;DHT22;4013;49.744;8.118;2023-07-28T08:13:59;20.10;99.90
7936;DHT22;4013;49.744;8.118;2023-07-28T08:16:26;20.30;99.90
7936;DHT22;4013;49.744;8.118;2023-07-28T08:18:53;20.40;99.90
7936;DHT22;4013;49.744;8.118;2023-07-28T08:21:22;20.50;99.90
7936;DHT22;4013;49.744;8.118;2023-07-28T08:23:49;20.50;99.90
7936;DHT22;4013;49.744;8.118;2023-07-28T08:26:16;20.70;99.90
7936;DHT22;4013;49.744;8.118;2023-07-28T08:28:43;20.80;99.90
7936;DHT22;4013;49.744;8.118;2023-07-28T08:31:11;20.80;99.90
7936;DHT22;4013;49.744;8.118;2023-07-28T08:33:38;20.80;99.90
7936;DHT22;4013;49.744;8.118;2023-07-28T08:36:05;20.90;99.90
7936;DHT22;4013;49.744;8.118;2023-07-28T08:38:33;20.90;99.90
7936;DHT22;4013;49.744;8.118;2023-07-28T08:41:00;20.90;99.90
7936;DHT22;4013;49.744;8.118;2023-07-28T08:43:27;20.90;99.90
7936;DHT22;4013;49.744;8.118;2023-07-28T08:45:55;20.90;99.90
7936;DHT22;4013;49.744;8.118;2023-07-28T08:48:22;20.90;99.90
7936;DHT22;4013;49.744;8.118;2023-07-28T08:50:49;20.90;99.90
7936;DHT22;4013;49.744;8.118;2023-07-28T08:53:17;21.00;99.90
7936;DHT22;4013;49.744;8.118;2023-07-28T08:55:45;21.00;99.90
7936;DHT22;4013;49.744;8.118;2023-07-28T08:58:16;21.10;99.90
7936;DHT22;4013;49.744;8.118;2023-07-28T09:00:44;21.10;99.90
7936;DHT22;4013;49.744;8.118;2023-07-28T09:03:14;21.10;99.90
7936;DHT22;4013;49.744;8.118;2023-07-28T09:05:42;21.20;99.90
7936;DHT22;4013;49.744;8.118;2023-07-28T09:08:10;21.20;99.90
7936;DHT22;4013;49.744;8.118;2023-07-28T09:10:45;21.10;99.90
7936;DHT22;4013;49.744;8.118;2023-07-28T09:13:13;21.10;99.90
7936;DHT22;4013;49.744;8.118;2023-07-28T09:15:40;21.10;99.90
7936;DHT22;4013;49.744;8.118;2023-07-28T09:18:11;21.10;99.90
7936;DHT22;4013;49.744;8.118;2023-07-28T09:20:39;21.20;99.90
7936;DHT22;4013;49.744;8.118;2023-07-28T09:23:07;21.30;99.90
7936;DHT22;4013;49.744;8.118;2023-07-28T09:25:35;21.40;99.90
7936;DHT22;4013;49.744;8.118;2023-07-28T09:28:04;21.40;99.90
7936;DHT22;4013;49.744;8.118;2023-07-28T09:30:44;21.40;99.90
7936;DHT22;4013;49.744;8.118;2023-07-28T09:33:12;21.40;99.90
7936;DHT22;4013;49.744;8.118;2023-07-28T09:35:47;21.40;99.90
7936;DHT22;4013;49.744;8.118;2023-07-28T09:38:15;21.40;99.90
7936;DHT22;4013;49.744;8.118;2023-07-28T09:40:43;21.50;99.90
7936;DHT22;4013;49.744;8.118;2023-07-28T09:43:12;21.60;99.90
7936;DHT22;4013;49.744;8.118;2023-07-28T09:45:40;21.70;99.90
7936;DHT22;4013;49.744;8.118;2023-07-28T09:48:09;21.80;99.90
7936;DHT22;4013;49.744;8.118;2023-07-28T09:50:39;21.80;99.90
7936;DHT22;4013;49.744;8.118;2023-07-28T09:53:09;21.80;99.90
7936;DHT22;4013;49.744;8.118;2023-07-28T09:55:38;21.80;99.90
7936;DHT22;4013;49.744;8.118;2023-07-28T09:58:09;21.80;99.90
7936;DHT22;4013;49.744;8.118;2023-07-28T10:00:38;21.80;99.90
7936;DHT22;4013;49.744;8.118;2023-07-28T10:03:07;21.80;99.90
7936;DHT22;4013;49.744;8.118;2023-07-28T10:05:35;21.80;99.90
7936;DHT22;4013;49.744;8.118;2023-07-28T10:08:03;21.80;99.90
7936;DHT22;4013;49.744;8.118;2023-07-28T10:10:31;21.70;99.90
7936;DHT22;4013;49.744;8.118;2023-07-28T10:12:59;21.60;99.90
7936;DHT22;4013;49.744;8.118;2023-07-28T10:15:30;21.60;99.90
7936;DHT22;4013;49.744;8.118;2023-07-28T10:17:59;21.60;99.90
7936;DHT22;4013;49.744;8.118;2023-07-28T10:20:27;21.60;99.90
7936;DHT22;4013;49.744;8.118;2023-07-28T10:23:02;21.60;99.90
7936;DHT22;4013;49.744;8.118;2023-07-28T10:25:33;21.70;99.90
7936;DHT22;4013;49.744;8.118;2023-07-28T10:28:00;21.70;99.90
7936;DHT22;4013;49.744;8.118;2023-07-28T10:30:35;21.70;99.90
7936;DHT22;4013;49.744;8.118;2023-07-28T10:33:04;21.60;99.90
7936;DHT22;4013;49.744;8.118;2023-07-28T10:35:32;21.50;99.90
7936;DHT22;4013;49.744;8.118;2023-07-28T10:38:31;21.50;99.90
7936;DHT22;4013;49.744;8.118;2023-07-28T10:41:10;21.50;99.90
7936;DHT22;4013;49.744;8.118;2023-07-28T10:43:37;21.50;99.90
7936;DHT22;4013;49.744;8.118;2023-07-28T10:46:05;21.60;99.90
7936;DHT22;4013;49.744;8.118;2023-07-28T10:48:36;21.50;99.90
7936;DHT22;4013;49.744;8.118;2023-07-28T10:51:05;21.50;99.90
7936;DHT22;4013;49.744;8.118;2023-07-28T10:53:32;21.40;99.90
7936;DHT22;4013;49.744;8.118;2023-07-28T10:56:01;21.30;99.90
7936;DHT22;4013;49.744;8.118;2023-07-28T10:58:29;21.30;99.90
7936;DHT22;4013;49.744;8.118;2023-07-28T11:00:55;21.30;99.90
7936;DHT22;4013;49.744;8.118;2023-07-28T11:03:22;21.30;99.90
7936;DHT22;4013;49.744;8.118;2023-07-28T11:05:51;21.20;99.90
7936;DHT22;4013;49.744;8.118;2023-07-28T11:08:18;21.20;99.90
7936;DHT22;4013;49.744;8.118;2023-07-28T11:10:45;21.20;99.90
7936;DHT22;4013;49.744;8.118;2023-07-28T11:13:13;21.20;99.90
7936;DHT22;4013;49.744;8.118;2023-07-28T11:15:41;21.20;99.90
7936;DHT22;4013;49.744;8.118;2023-07-28T11:18:08;21.20;99.90
7936;DHT22;4013;49.744;8.118;2023-07-28T11:20:35;21.10;99.90
7936;DHT22;4013;49.744;8.118;2023-07-28T11:23:04;21.20;99.90
7936;DHT22;4013;49.744;8.118;2023-07-28T11:25:33;21.10;99.90
7936;DHT22;4013;49.744;8.118;2023-07-28T11:28:01;21.10;99.90
7936;DHT22;4013;49.744;8.118;2023-07-28T11:30:31;21.20;99.90
7936;DHT22;4013;49.744;8.118;2023-07-28T11:32:58;21.10;99.90
7936;DHT22;4013;49.744;8.118;2023-07-28T11:35:26;21.20;99.90
7936;DHT22;4013;49.744;8.118;2023-07-28T11:37:53;21.20;99.90
7936;DHT22;4013;49.744;8.118;2023-07-28T11:40:22;21.20;99.90
7936;DHT22;4013;49.744;8.118;2023-07-28T11:42:53;21.20;99.90
7936;DHT22;4013;49.744;8.118;2023-07-28T11:45:21;21.30;99.90
7936;DHT22;4013;49.744;8.118;2023-07-28T11:47:55;21.30;99.90
7936;DHT22;4013;49.744;8.118;2023-07-28T11:50:24;21.40;99.90
7936;DHT22;4013;49.744;8.118;2023-07-28T11:52:51;21.40;99.90
7936;DHT22;4013;49.744;8.118;2023-07-28T11:55:19;21.40;99.90
7936;DHT22;4013;49.744;8.118;2023-07-28T11:57:49;21.40;99.90
7936;DHT22;4013;49.744;8.118;2023-07-28T12:00:16;21.50;99.90
7936;DHT22;4013;49.744;8.118;2023-07-28T12:02:44;21.50;99.90
7936;DHT22;4013;49.744;8.118;2023-07-28T12:05:13;21.60;99.90
7936;DHT22;4013;49.744;8.118;2023-07-28T12:07:40;21.60;99.90
7936;DHT22;4013;49.744;8.118;2023-07-28T12:10:08;21.50;99.90
7936;DHT22;4013;49.744;8.118;2023-07-28T12:12:42;21.50;99.90
7936;DHT22;4013;49.744;8.118;2023-07-28T12:15:25;21.40;99.90
7936;DHT22;4013;49.744;8.118;2023-07-28T12:18:12;21.40;99.90
7936;DHT22;4013;49.744;8.118;2023-07-28T12:20:40;21.40;99.90
7936;DHT22;4013;49.744;8.118;2023-07-28T12:23:13;21.50;99.90
7936;DHT22;4013;49.744;8.118;2023-07-28T12:25:40;21.70;99.90
7936;DHT22;4013;49.744;8.118;2023-07-28T12:28:07;21.80;99.90
7936;DHT22;4013;49.744;8.118;2023-07-28T12:30:44;21.90;99.90
7936;DHT22;4013;49.744;8.118;2023-07-28T12:33:14;22.00;99.90
7936;DHT22;4013;49.744;8.118;2023-07-28T12:35:41;22.00;99.90
7936;DHT22;4013;49.744;8.118;2023-07-28T12:38:08;22.00;99.90
7936;DHT22;4013;49.744;8.118;2023-07-28T12:40:35;22.00;99.90
7936;DHT22;4013;49.744;8.118;2023-07-28T12:43:02;22.10;99.90
7936;DHT22;4013;49.744;8.118;2023-07-28T12:45:30;22.00;99.90
7936;DHT22;4013;49.744;8.118;2023-07-28T12:47:58;22.00;99.90
7936;DHT22;4013;49.744;8.118;2023-07-28T12:50:26;22.00;99.90
7936;DHT22;4013;49.744;8.118;2023-07-28T12:52:53;21.90;99.90
7936;DHT22;4013;49.744;8.118;2023-07-28T12:55:21;21.90;99.90
7936;DHT22;4013;49.744;8.118;2023-07-28T12:57:48;21.80;99.90
7936;DHT22;4013;49.744;8.118;2023-07-28T13:00:15;21.70;99.90
7936;DHT22;4013;49.744;8.118;2023-07-28T13:02:44;21.70;99.90
7936;DHT22;4013;49.744;8.118;2023-07-28T13:05:13;21.60;99.90
7936;DHT22;4013;49.744;8.118;2023-07-28T13:07:41;21.60;99.90
7936;DHT22;4013;49.744;8.118;2023-07-28T13:10:09;21.60;99.90
7936;DHT22;4013;49.744;8.118;2023-07-28T13:12:37;21.50;99.90
7936;DHT22;4013;49.744;8.118;2023-07-28T13:15:05;21.50;99.90
7936;DHT22;4013;49.744;8.118;2023-07-28T13:17:32;21.50;99.90
7936;DHT22;4013;49.744;8.118;2023-07-28T13:19:59;21.50;99.90
7936;DHT22;4013;49.744;8.118;2023-07-28T13:22:27;21.50;99.90
7936;DHT22;4013;49.744;8.118;2023-07-28T13:24:54;21.50;99.90
7936;DHT22;4013;49.744;8.118;2023-07-28T13:27:21;21.50;99.90
7936;DHT22;4013;49.744;8.118;2023-07-28T13:29:48;21.50;99.90
7936;DHT22;4013;49.744;8.118;2023-07-28T13:32:16;21.50;99.90
7936;DHT22;4013;49.744;8.118;2023-07-28T13:34:43;21.60;99.90
7936;DHT22;4013;49.744;8.118;2023-07-28T13:37:10;21.60;99.90
7936;DHT22;4013;49.744;8.118;2023-07-28T13:39:39;21.70;99.90
7936;DHT22;4013;49.744;8.118;2023-07-28T13:42:06;21.70;99.90
7936;DHT22;4013;49.744;8.118;2023-07-28T13:44:33;21.70;99.90
7936;DHT22;4013;49.744;8.118;2023-07-28T13:47:00;21.70;99.90
7936;DHT22;4013;49.744;8.118;2023-07-28T13:49:27;21.70;99.90
7936;DHT22;4013;49.744;8.118;2023-07-28T13:51:54;21.70;99.90
7936;DHT22;4013;49.744;8.118;2023-07-28T13:54:21;21.70;99.90
7936;DHT22;4013;49.744;8.118;2023-07-28T13:56:50;21.70;99.90
7936;DHT22;4013;49.744;8.118;2023-07-28T13:59:17;21.70;99.90
7936;DHT22;4013;49.744;8.118;2023-07-28T14:01:44;21.70;99.90
7936;DHT22;4013;49.744;8.118;2023-07-28T14:04:11;21.70;99.90
7936;DHT22;4013;49.744;8.118;2023-07-28T14:06:39;21.60;99.90
7936;DHT22;4013;49.744;8.118;2023-07-28T14:09:06;21.60;99.90
7936;DHT22;4013;49.744;8.118;2023-07-28T14:11:33;21.60;99.90
7936;DHT22;4013;49.744;8.118;2023-07-28T14:14:01;21.60;99.90
7936;DHT22;4013;49.744;8.118;2023-07-28T14:16:28;21.60;99.90
7936;DHT22;4013;49.744;8.118;2023-07-28T14:18:55;21.60;99.90
7936;DHT22;4013;49.744;8.118;2023-07-28T14:21:22;21.60;99.90
7936;DHT22;4013;49.744;8.118;2023-07-28T14:23:49;21.60;99.90
7936;DHT22;4013;49.744;8.118;2023-07-28T14:26:16;21.50;99.90
7936;DHT22;4013;49.744;8.118;2023-07-28T14:28:43;21.60;99.90
7936;DHT22;4013;49.744;8.118;2023-07-28T14:31:11;21.60;99.90
7936;DHT22;4013;49.744;8.118;2023-07-28T14:33:38;21.60;99.90
7936;DHT22;4013;49.744;8.118;2023-07-28T14:36:05;21.60;99.90
7936;DHT22;4013;49.744;8.118;2023-07-28T14:38:32;21.60;99.90
7936;DHT22;4013;49.744;8.118;2023-07-28T14:40:59;21.60;99.90
7936;DHT22;4013;49.744;8.118;2023-07-28T14:43:26;21.60;99.90
7936;DHT22;4013;49.744;8.118;2023-07-28T14:45:54;21.60;99.90
7936;DHT22;4013;49.744;8.118;2023-07-28T14:48:22;21.60;99.90
7936;DHT22;4013;49.744;8.118;2023-07-28T14:50:49;21.60;99.90
7936;DHT22;4013;49.744;8.118;2023-07-28T14:53:33;21.50;99.90
7936;DHT22;4013;49.744;8.118;2023-07-28T14:56:00;21.50;99.90
7936;DHT22;4013;49.744;8.118;2023-07-28T14:58:28;21.40;99.90
7936;DHT22;4013;49.744;8.118;2023-07-28T15:00:55;21.40;99.90
7936;DHT22;4013;49.744;8.118;2023-07-28T15:03:26;21.40;99.90
7936;DHT22;4013;49.744;8.118;2023-07-28T15:05:53;21.40;99.90
7936;DHT22;4013;49.744;8.118;2023-07-28T15:08:21;21.40;99.90
7936;DHT22;4013;49.744;8.118;2023-07-28T15:10:48;21.40;99.90
7936;DHT22;4013;49.744;8.118;2023-07-28T15:13:15;21.40;99.90
7936;DHT22;4013;49.744;8.118;2023-07-28T15:15:41;21.40;99.90
7936;DHT22;4013;49.744;8.118;2023-07-28T15:18:08;21.30;99.90
7936;DHT22;4013;49.744;8.118;2023-07-28T15:20:37;21.30;99.90
7936;DHT22;4013;49.744;8.118;2023-07-28T15:23:04;21.30;99.90
7936;DHT22;4013;49.744;8.118;2023-07-28T15:25:31;21.20;99.90
7936;DHT22;4013;49.744;8.118;2023-07-28T15:27:58;21.30;99.90
7936;DHT22;4013;49.744;8.118;2023-07-28T15:30:25;21.30;99.90
7936;DHT22;4013;49.744;8.118;2023-07-28T15:32:52;21.20;99.90
7936;DHT22;4013;49.744;8.118;2023-07-28T15:35:19;21.20;99.90
7936;DHT22;4013;49.744;8.118;2023-07-28T15:37:47;21.20;99.90
7936;DHT22;4013;49.744;8.118;2023-07-28T15:40:14;21.10;99.90
7936;DHT22;4013;49.744;8.118;2023-07-28T15:42:41;21.10;99.90
7936;DHT22;4013;49.744;8.118;2023-07-28T15:45:08;21.20;99.90
7936;DHT22;4013;49.744;8.118;2023-07-28T15:47:35;21.20;99.90
7936;DHT22;4013;49.744;8.118;2023-07-28T15:50:02;21.20;99.90
7936;DHT22;4013;49.744;8.118;2023-07-28T15:52:31;21.20;99.90
7936;DHT22;4013;49.744;8.118;2023-07-28T15:54:59;21.20;99.90
7936;DHT22;4013;49.744;8.118;2023-07-28T15:57:29;21.10;99.90
7936;DHT22;4013;49.744;8.118;2023-07-28T15:59:56;21.20;99.90
7936;DHT22;4013;49.744;8.118;2023-07-28T16:02:22;21.20;99.90
7936;DHT22;4013;49.744;8.118;2023-07-28T16:04:49;21.10;99.90
7936;DHT22;4013;49.744;8.118;2023-07-28T16:07:16;21.20;99.90